sensor_id;sensor_type;location;lat;lon;timestamp;P1;durP1;ratioP1;P2;durP2;ratioP2
20865;SDS011;10593;48.398;10.698;2022-10-16T00:01:24;2.17;;;1.97;;
20865;SDS011;10593;48.398;10.698;2022-10-16T00:03:53;3.93;;;2.00;;
20865;SDS011;10593;48.398;10.698;2022-10-16T00:06:20;1.90;;;1.80;;
20865;SDS011;10593;48.398;10.698;2022-10-16T00:08:47;2.00;;;1.80;;
20865;SDS011;10593;48.398;10.698;2022-10-16T00:11:18;4.07;;;2.10;;
20865;SDS011;10593;48.398;10.698;2022-10-16T00:13:58;1.97;;;1.87;;
20865;SDS011;10593;48.398;10.698;2022-10-16T00:16:27;2.80;;;1.90;;
20865;SDS011;10593;48.398;10.698;2022-10-16T00:18:53;3.00;;;1.80;;
20865;SDS011;10593;48.398;10.698;2022-10-16T00:21:21;2.40;;;2.20;;
20865;SDS011;10593;48.398;10.698;2022-10-16T00:23:52;2.63;;;2.30;;
20865;SDS011;10593;48.398;10.698;2022-10-16T00:26:22;3.47;;;1.97;;
20865;SDS011;10593;48.398;10.698;2022-10-16T00:28:48;2.30;;;1.90;;
20865;SDS011;10593;48.398;10.698;2022-10-16T00:31:16;2.03;;;1.87;;
20865;SDS011;10593;48.398;10.698;2022-10-16T00:33:44;2.67;;;2.00;;
20865;SDS011;10593;48.398;10.698;2022-10-16T00:36:12;2.10;;;1.67;;
20865;SDS011;10593;48.398;10.698;2022-10-16T00:38:42;1.97;;;1.77;;
20865;SDS011;10593;48.398;10.698;2022-10-16T00:41:09;2.53;;;1.90;;
20865;SDS011;10593;48.398;10.698;2022-10-16T00:43:44;2.00;;;1.80;;
20865;SDS011;10593;48.398;10.698;2022-10-16T00:46:18;2.60;;;1.50;;
20865;SDS011;10593;48.398;10.698;2022-10-16T00:49:00;4.70;;;2.20;;
20865;SDS011;10593;48.398;10.698;2022-10-16T00:51:35;3.73;;;1.90;;
20865;SDS011;10593;48.398;10.698;2022-10-16T00:54:12;1.87;;;1.77;;
20865;SDS011;10593;48.398;10.698;2022-10-16T00:56:52;2.27;;;1.37;;
20865;SDS011;10593;48.398;10.698;2022-10-16T00:59:27;2.20;;;1.57;;
20865;SDS011;10593;48.398;10.698;2022-10-16T01:01:57;2.10;;;1.80;;
20865;SDS011;10593;48.398;10.698;2022-10-16T01:04:24;2.63;;;1.63;;
20865;SDS011;10593;48.398;10.698;2022-10-16T01:06:55;1.83;;;1.37;;
20865;SDS011;10593;48.398;10.698;2022-10-16T01:13:09;3.53;;;1.37;;
20865;SDS011;10593;48.398;10.698;2022-10-16T01:15:50;4.37;;;1.70;;
20865;SDS011;10593;48.398;10.698;2022-10-16T01:18:45;1.40;;;1.27;;
20865;SDS011;10593;48.398;10.698;2022-10-16T01:24:01;2.10;;;1.50;;
20865;SDS011;10593;48.398;10.698;2022-10-16T01:29:43;3.60;;;1.80;;
20865;SDS011;10593;48.398;10.698;2022-10-16T01:40:25;1.93;;;1.20;;
20865;SDS011;10593;48.398;10.698;2022-10-16T01:42:59;1.57;;;1.20;;
20865;SDS011;10593;48.398;10.698;2022-10-16T01:45:37;2.13;;;1.20;;
20865;SDS011;10593;48.398;10.698;2022-10-16T01:48:06;1.87;;;1.30;;
20865;SDS011;10593;48.398;10.698;2022-10-16T01:50:35;2.20;;;1.50;;
20865;SDS011;10593;48.398;10.698;2022-10-16T01:53:07;2.90;;;1.43;;
20865;SDS011;10593;48.398;10.698;2022-10-16T01:55:38;3.77;;;1.40;;
20865;SDS011;10593;48.398;10.698;2022-10-16T01:58:10;3.00;;;1.30;;
20865;SDS011;10593;48.398;10.698;2022-10-16T02:00:39;2.20;;;1.10;;
20865;SDS011;10593;48.398;10.698;2022-10-16T02:03:09;3.13;;;1.30;;
20865;SDS011;10593;48.398;10.698;2022-10-16T02:05:41;1.20;;;1.10;;
20865;SDS011;10593;48.398;10.698;2022-10-16T02:08:16;1.30;;;1.20;;
20865;SDS011;10593;48.398;10.698;2022-10-16T02:10:42;1.47;;;1.37;;
20865;SDS011;10593;48.398;10.698;2022-10-16T02:13:26;1.50;;;1.40;;
20865;SDS011;10593;48.398;10.698;2022-10-16T02:15:59;2.40;;;1.23;;
20865;SDS011;10593;48.398;10.698;2022-10-16T02:18:25;1.00;;;1.00;;
20865;SDS011;10593;48.398;10.698;2022-10-16T02:21:02;1.27;;;1.10;;
20865;SDS011;10593;48.398;10.698;2022-10-16T02:23:51;2.20;;;1.10;;
20865;SDS011;10593;48.398;10.698;2022-10-16T02:26:52;7.50;;;1.50;;
20865;SDS011;10593;48.398;10.698;2022-10-16T02:29:53;1.80;;;1.20;;
20865;SDS011;10593;48.398;10.698;2022-10-16T02:32:33;0.97;;;0.90;;
20865;SDS011;10593;48.398;10.698;2022-10-16T02:35:02;0.93;;;0.90;;
20865;SDS011;10593;48.398;10.698;2022-10-16T02:37:29;1.10;;;1.00;;
20865;SDS011;10593;48.398;10.698;2022-10-16T02:39:56;1.50;;;1.10;;
20865;SDS011;10593;48.398;10.698;2022-10-16T02:42:27;1.37;;;1.00;;
20865;SDS011;10593;48.398;10.698;2022-10-16T02:44:58;1.03;;;0.80;;
20865;SDS011;10593;48.398;10.698;2022-10-16T02:47:24;1.37;;;0.80;;
20865;SDS011;10593;48.398;10.698;2022-10-16T02:49:49;1.23;;;0.90;;
20865;SDS011;10593;48.398;10.698;2022-10-16T02:52:15;2.10;;;0.97;;
20865;SDS011;10593;48.398;10.698;2022-10-16T02:54:41;2.33;;;1.30;;
20865;SDS011;10593;48.398;10.698;2022-10-16T02:57:06;2.40;;;1.20;;
20865;SDS011;10593;48.398;10.698;2022-10-16T02:59:32;0.90;;;0.90;;
20865;SDS011;10593;48.398;10.698;2022-10-16T03:01:58;1.03;;;0.90;;
20865;SDS011;10593;48.398;10.698;2022-10-16T03:04:23;2.33;;;0.97;;
20865;SDS011;10593;48.398;10.698;2022-10-16T03:06:49;1.50;;;1.00;;
20865;SDS011;10593;48.398;10.698;2022-10-16T03:09:15;1.70;;;0.90;;
20865;SDS011;10593;48.398;10.698;2022-10-16T03:11:40;0.90;;;0.90;;
20865;SDS011;10593;48.398;10.698;2022-10-16T03:14:06;1.03;;;0.90;;
20865;SDS011;10593;48.398;10.698;2022-10-16T03:16:32;1.17;;;1.07;;
20865;SDS011;10593;48.398;10.698;2022-10-16T03:18:58;1.53;;;0.90;;
20865;SDS011;10593;48.398;10.698;2022-10-16T03:21:23;1.13;;;0.80;;
20865;SDS011;10593;48.398;10.698;2022-10-16T03:23:49;1.53;;;0.90;;
20865;SDS011;10593;48.398;10.698;2022-10-16T03:26:15;1.63;;;0.83;;
20865;SDS011;10593;48.398;10.698;2022-10-16T03:28:41;2.27;;;1.10;;
20865;SDS011;10593;48.398;10.698;2022-10-16T03:31:06;1.60;;;1.10;;
20865;SDS011;10593;48.398;10.698;2022-10-16T03:33:33;1.07;;;0.90;;
20865;SDS011;10593;48.398;10.698;2022-10-16T03:35:59;1.80;;;0.80;;
20865;SDS011;10593;48.398;10.698;2022-10-16T03:38:25;1.07;;;0.70;;
20865;SDS011;10593;48.398;10.698;2022-10-16T03:40:50;2.20;;;0.80;;
20865;SDS011;10593;48.398;10.698;2022-10-16T03:43:16;1.77;;;0.97;;
20865;SDS011;10593;48.398;10.698;2022-10-16T03:45:42;0.90;;;0.90;;
20865;SDS011;10593;48.398;10.698;2022-10-16T03:48:07;0.97;;;0.83;;
20865;SDS011;10593;48.398;10.698;2022-10-16T03:50:36;1.67;;;0.70;;
20865;SDS011;10593;48.398;10.698;2022-10-16T03:53:02;1.97;;;0.60;;
20865;SDS011;10593;48.398;10.698;2022-10-16T03:55:28;2.17;;;0.90;;
20865;SDS011;10593;48.398;10.698;2022-10-16T03:57:53;2.37;;;1.20;;
20865;SDS011;10593;48.398;10.698;2022-10-16T04:00:19;1.30;;;1.00;;
20865;SDS011;10593;48.398;10.698;2022-10-16T04:02:45;1.07;;;1.07;;
20865;SDS011;10593;48.398;10.698;2022-10-16T04:05:10;1.70;;;1.20;;
20865;SDS011;10593;48.398;10.698;2022-10-16T04:07:36;2.17;;;0.90;;
20865;SDS011;10593;48.398;10.698;2022-10-16T04:10:02;1.13;;;0.73;;
20865;SDS011;10593;48.398;10.698;2022-10-16T04:12:30;1.33;;;0.80;;
20865;SDS011;10593;48.398;10.698;2022-10-16T04:14:56;1.13;;;0.80;;
20865;SDS011;10593;48.398;10.698;2022-10-16T04:17:22;1.30;;;0.93;;
20865;SDS011;10593;48.398;10.698;2022-10-16T04:19:47;1.90;;;0.80;;
20865;SDS011;10593;48.398;10.698;2022-10-16T04:22:13;0.63;;;0.63;;
20865;SDS011;10593;48.398;10.698;2022-10-16T04:24:38;2.60;;;0.87;;
20865;SDS011;10593;48.398;10.698;2022-10-16T04:27:05;3.07;;;1.00;;
20865;SDS011;10593;48.398;10.698;2022-10-16T04:29:30;0.80;;;0.80;;
20865;SDS011;10593;48.398;10.698;2022-10-16T04:31:56;1.67;;;0.90;;
20865;SDS011;10593;48.398;10.698;2022-10-16T04:34:22;0.73;;;0.60;;
20865;SDS011;10593;48.398;10.698;2022-10-16T04:36:48;3.43;;;1.03;;
20865;SDS011;10593;48.398;10.698;2022-10-16T04:39:14;2.43;;;1.00;;
20865;SDS011;10593;48.398;10.698;2022-10-16T04:41:40;0.60;;;0.60;;
20865;SDS011;10593;48.398;10.698;2022-10-16T04:44:06;0.83;;;0.47;;
20865;SDS011;10593;48.398;10.698;2022-10-16T04:46:32;2.63;;;1.13;;
20865;SDS011;10593;48.398;10.698;2022-10-16T04:48:57;0.87;;;0.80;;
20865;SDS011;10593;48.398;10.698;2022-10-16T04:51:23;2.17;;;0.80;;
20865;SDS011;10593;48.398;10.698;2022-10-16T04:53:50;3.10;;;0.77;;
20865;SDS011;10593;48.398;10.698;2022-10-16T04:56:16;0.80;;;0.80;;
20865;SDS011;10593;48.398;10.698;2022-10-16T04:58:43;0.67;;;0.67;;
20865;SDS011;10593;48.398;10.698;2022-10-16T05:01:09;1.37;;;0.60;;
20865;SDS011;10593;48.398;10.698;2022-10-16T05:03:34;0.60;;;0.60;;
20865;SDS011;10593;48.398;10.698;2022-10-16T05:06:00;1.07;;;0.80;;
20865;SDS011;10593;48.398;10.698;2022-10-16T05:08:26;2.20;;;1.00;;
20865;SDS011;10593;48.398;10.698;2022-10-16T05:10:51;0.50;;;0.50;;
20865;SDS011;10593;48.398;10.698;2022-10-16T05:13:17;0.63;;;0.63;;
20865;SDS011;10593;48.398;10.698;2022-10-16T05:15:46;4.03;;;1.10;;
20865;SDS011;10593;48.398;10.698;2022-10-16T05:18:13;1.43;;;0.90;;
20865;SDS011;10593;48.398;10.698;2022-10-16T05:20:39;0.70;;;0.70;;
20865;SDS011;10593;48.398;10.698;2022-10-16T05:23:04;1.00;;;0.83;;
20865;SDS011;10593;48.398;10.698;2022-10-16T05:25:30;1.07;;;0.80;;
20865;SDS011;10593;48.398;10.698;2022-10-16T05:27:56;0.73;;;0.50;;
20865;SDS011;10593;48.398;10.698;2022-10-16T05:30:22;0.90;;;0.80;;
20865;SDS011;10593;48.398;10.698;2022-10-16T05:32:48;2.77;;;0.83;;
20865;SDS011;10593;48.398;10.698;2022-10-16T05:35:15;0.90;;;0.57;;
20865;SDS011;10593;48.398;10.698;2022-10-16T05:37:43;3.63;;;1.00;;
20865;SDS011;10593;48.398;10.698;2022-10-16T05:40:09;0.73;;;0.73;;
20865;SDS011;10593;48.398;10.698;2022-10-16T05:42:35;0.70;;;0.70;;
20865;SDS011;10593;48.398;10.698;2022-10-16T05:45:02;1.77;;;0.90;;
20865;SDS011;10593;48.398;10.698;2022-10-16T05:47:30;2.70;;;1.13;;
20865;SDS011;10593;48.398;10.698;2022-10-16T05:49:55;6.87;;;1.53;;
20865;SDS011;10593;48.398;10.698;2022-10-16T05:52:21;0.50;;;0.50;;
20865;SDS011;10593;48.398;10.698;2022-10-16T05:54:46;1.23;;;0.90;;
20865;SDS011;10593;48.398;10.698;2022-10-16T05:57:12;1.77;;;1.47;;
20865;SDS011;10593;48.398;10.698;2022-10-16T05:59:38;1.70;;;0.80;;
20865;SDS011;10593;48.398;10.698;2022-10-16T06:02:03;1.53;;;0.73;;
20865;SDS011;10593;48.398;10.698;2022-10-16T06:04:29;0.80;;;0.80;;
20865;SDS011;10593;48.398;10.698;2022-10-16T06:06:57;0.73;;;0.73;;
20865;SDS011;10593;48.398;10.698;2022-10-16T06:09:25;0.60;;;0.60;;
20865;SDS011;10593;48.398;10.698;2022-10-16T06:11:51;0.63;;;0.63;;
20865;SDS011;10593;48.398;10.698;2022-10-16T06:14:16;0.77;;;0.77;;
20865;SDS011;10593;48.398;10.698;2022-10-16T06:16:42;0.80;;;0.80;;
20865;SDS011;10593;48.398;10.698;2022-10-16T06:19:08;0.60;;;0.60;;
20865;SDS011;10593;48.398;10.698;2022-10-16T06:21:34;1.37;;;0.43;;
20865;SDS011;10593;48.398;10.698;2022-10-16T06:24:00;1.77;;;0.70;;
20865;SDS011;10593;48.398;10.698;2022-10-16T06:26:27;0.70;;;0.70;;
20865;SDS011;10593;48.398;10.698;2022-10-16T06:28:55;0.70;;;0.70;;
20865;SDS011;10593;48.398;10.698;2022-10-16T06:31:23;1.70;;;0.60;;
20865;SDS011;10593;48.398;10.698;2022-10-16T06:33:52;4.37;;;1.33;;
20865;SDS011;10593;48.398;10.698;2022-10-16T06:36:19;1.80;;;0.60;;
20865;SDS011;10593;48.398;10.698;2022-10-16T06:38:46;0.70;;;0.70;;
20865;SDS011;10593;48.398;10.698;2022-10-16T06:41:16;1.10;;;0.60;;
20865;SDS011;10593;48.398;10.698;2022-10-16T06:43:45;3.17;;;0.90;;
20865;SDS011;10593;48.398;10.698;2022-10-16T06:46:12;0.93;;;0.73;;
20865;SDS011;10593;48.398;10.698;2022-10-16T06:48:41;1.23;;;0.70;;
20865;SDS011;10593;48.398;10.698;2022-10-16T06:51:15;1.37;;;0.67;;
20865;SDS011;10593;48.398;10.698;2022-10-16T06:53:47;2.30;;;0.73;;
20865;SDS011;10593;48.398;10.698;2022-10-16T06:56:16;0.67;;;0.67;;
20865;SDS011;10593;48.398;10.698;2022-10-16T06:58:43;1.03;;;0.67;;
20865;SDS011;10593;48.398;10.698;2022-10-16T07:01:10;0.80;;;0.60;;
20865;SDS011;10593;48.398;10.698;2022-10-16T07:03:38;2.10;;;0.70;;
20865;SDS011;10593;48.398;10.698;2022-10-16T07:06:07;0.93;;;0.93;;
20865;SDS011;10593;48.398;10.698;2022-10-16T07:08:36;1.27;;;0.77;;
20865;SDS011;10593;48.398;10.698;2022-10-16T07:11:06;1.67;;;0.90;;
20865;SDS011;10593;48.398;10.698;2022-10-16T07:13:38;1.03;;;0.80;;
20865;SDS011;10593;48.398;10.698;2022-10-16T07:18:36;1.43;;;0.80;;
20865;SDS011;10593;48.398;10.698;2022-10-16T07:21:09;2.30;;;0.73;;
20865;SDS011;10593;48.398;10.698;2022-10-16T07:23:38;0.93;;;0.93;;
20865;SDS011;10593;48.398;10.698;2022-10-16T07:26:04;2.90;;;0.80;;
20865;SDS011;10593;48.398;10.698;2022-10-16T07:28:31;1.23;;;0.57;;
20865;SDS011;10593;48.398;10.698;2022-10-16T07:31:01;0.73;;;0.73;;
20865;SDS011;10593;48.398;10.698;2022-10-16T07:33:33;1.73;;;0.80;;
20865;SDS011;10593;48.398;10.698;2022-10-16T07:36:00;0.67;;;0.67;;
20865;SDS011;10593;48.398;10.698;2022-10-16T07:38:26;2.10;;;0.80;;
20865;SDS011;10593;48.398;10.698;2022-10-16T07:40:58;1.10;;;0.90;;
20865;SDS011;10593;48.398;10.698;2022-10-16T07:43:26;0.80;;;0.80;;
20865;SDS011;10593;48.398;10.698;2022-10-16T07:45:53;1.30;;;0.90;;
20865;SDS011;10593;48.398;10.698;2022-10-16T07:48:20;1.00;;;1.00;;
20865;SDS011;10593;48.398;10.698;2022-10-16T07:50:47;1.57;;;0.90;;
20865;SDS011;10593;48.398;10.698;2022-10-16T07:53:13;0.77;;;0.77;;
20865;SDS011;10593;48.398;10.698;2022-10-16T07:55:39;1.13;;;1.03;;
20865;SDS011;10593;48.398;10.698;2022-10-16T07:58:05;2.47;;;1.20;;
20865;SDS011;10593;48.398;10.698;2022-10-16T08:00:31;0.70;;;0.70;;
20865;SDS011;10593;48.398;10.698;2022-10-16T08:02:57;2.13;;;1.00;;
20865;SDS011;10593;48.398;10.698;2022-10-16T08:05:27;0.70;;;0.70;;
20865;SDS011;10593;48.398;10.698;2022-10-16T08:07:56;1.80;;;0.93;;
20865;SDS011;10593;48.398;10.698;2022-10-16T08:10:22;0.60;;;0.60;;
20865;SDS011;10593;48.398;10.698;2022-10-16T08:12:51;0.90;;;0.90;;
20865;SDS011;10593;48.398;10.698;2022-10-16T08:15:17;0.93;;;0.93;;
20865;SDS011;10593;48.398;10.698;2022-10-16T08:17:44;1.57;;;0.80;;
20865;SDS011;10593;48.398;10.698;2022-10-16T08:20:21;1.20;;;1.03;;
20865;SDS011;10593;48.398;10.698;2022-10-16T08:22:46;0.63;;;0.60;;
20865;SDS011;10593;48.398;10.698;2022-10-16T08:25:12;1.80;;;0.60;;
20865;SDS011;10593;48.398;10.698;2022-10-16T08:27:37;0.60;;;0.60;;
20865;SDS011;10593;48.398;10.698;2022-10-16T08:30:03;1.80;;;0.57;;
20865;SDS011;10593;48.398;10.698;2022-10-16T08:32:29;0.77;;;0.77;;
20865;SDS011;10593;48.398;10.698;2022-10-16T08:34:55;0.53;;;0.53;;
20865;SDS011;10593;48.398;10.698;2022-10-16T08:37:21;0.50;;;0.50;;
20865;SDS011;10593;48.398;10.698;2022-10-16T08:39:46;2.13;;;0.80;;
20865;SDS011;10593;48.398;10.698;2022-10-16T08:42:18;0.67;;;0.60;;
20865;SDS011;10593;48.398;10.698;2022-10-16T08:45:07;2.47;;;0.80;;
20865;SDS011;10593;48.398;10.698;2022-10-16T08:48:20;0.63;;;0.63;;
20865;SDS011;10593;48.398;10.698;2022-10-16T08:50:51;1.37;;;0.77;;
20865;SDS011;10593;48.398;10.698;2022-10-16T08:53:19;0.73;;;0.73;;
20865;SDS011;10593;48.398;10.698;2022-10-16T08:55:52;0.97;;;0.83;;
20865;SDS011;10593;48.398;10.698;2022-10-16T09:00:53;1.57;;;1.00;;
20865;SDS011;10593;48.398;10.698;2022-10-16T09:06:17;0.90;;;0.90;;
20865;SDS011;10593;48.398;10.698;2022-10-16T09:12:17;0.70;;;0.70;;
20865;SDS011;10593;48.398;10.698;2022-10-16T09:23:19;0.90;;;0.90;;
20865;SDS011;10593;48.398;10.698;2022-10-16T09:25:55;1.00;;;0.70;;
20865;SDS011;10593;48.398;10.698;2022-10-16T09:28:24;2.63;;;1.03;;
20865;SDS011;10593;48.398;10.698;2022-10-16T09:30:49;0.70;;;0.70;;
20865;SDS011;10593;48.398;10.698;2022-10-16T09:33:17;0.60;;;0.60;;
20865;SDS011;10593;48.398;10.698;2022-10-16T09:35:54;2.40;;;0.90;;
20865;SDS011;10593;48.398;10.698;2022-10-16T09:38:27;1.20;;;0.90;;
20865;SDS011;10593;48.398;10.698;2022-10-16T09:41:17;1.50;;;1.03;;
20865;SDS011;10593;48.398;10.698;2022-10-16T09:46:29;1.60;;;1.20;;
20865;SDS011;10593;48.398;10.698;2022-10-16T09:49:20;0.70;;;0.70;;
20865;SDS011;10593;48.398;10.698;2022-10-16T09:51:50;0.60;;;0.60;;
20865;SDS011;10593;48.398;10.698;2022-10-16T09:54:28;0.70;;;0.70;;
20865;SDS011;10593;48.398;10.698;2022-10-16T09:57:03;0.90;;;0.80;;
20865;SDS011;10593;48.398;10.698;2022-10-16T09:59:31;0.70;;;0.60;;
20865;SDS011;10593;48.398;10.698;2022-10-16T10:02:00;0.70;;;0.70;;
20865;SDS011;10593;48.398;10.698;2022-10-16T10:04:39;0.70;;;0.70;;
20865;SDS011;10593;48.398;10.698;2022-10-16T10:07:27;1.37;;;0.60;;
20865;SDS011;10593;48.398;10.698;2022-10-16T10:09:59;0.60;;;0.60;;
20865;SDS011;10593;48.398;10.698;2022-10-16T10:12:28;3.20;;;0.60;;
20865;SDS011;10593;48.398;10.698;2022-10-16T10:14:57;1.40;;;0.97;;
20865;SDS011;10593;48.398;10.698;2022-10-16T10:17:31;0.57;;;0.53;;
20865;SDS011;10593;48.398;10.698;2022-10-16T10:20:01;0.70;;;0.67;;
20865;SDS011;10593;48.398;10.698;2022-10-16T10:22:53;0.57;;;0.57;;
20865;SDS011;10593;48.398;10.698;2022-10-16T10:28:36;0.70;;;0.70;;
20865;SDS011;10593;48.398;10.698;2022-10-16T10:31:21;0.60;;;0.60;;
20865;SDS011;10593;48.398;10.698;2022-10-16T10:36:40;1.07;;;0.97;;
20865;SDS011;10593;48.398;10.698;2022-10-16T10:51:13;0.53;;;0.53;;
20865;SDS011;10593;48.398;10.698;2022-10-16T10:54:01;1.77;;;0.87;;
20865;SDS011;10593;48.398;10.698;2022-10-16T11:00:21;0.70;;;0.70;;
20865;SDS011;10593;48.398;10.698;2022-10-16T11:03:05;1.03;;;0.80;;
20865;SDS011;10593;48.398;10.698;2022-10-16T11:06:16;0.60;;;0.60;;
20865;SDS011;10593;48.398;10.698;2022-10-16T11:09:10;0.50;;;0.50;;
20865;SDS011;10593;48.398;10.698;2022-10-16T11:11:50;0.67;;;0.67;;
20865;SDS011;10593;48.398;10.698;2022-10-16T11:17:51;0.83;;;0.83;;
20865;SDS011;10593;48.398;10.698;2022-10-16T11:20:43;0.77;;;0.50;;
20865;SDS011;10593;48.398;10.698;2022-10-16T11:26:12;0.67;;;0.67;;
20865;SDS011;10593;48.398;10.698;2022-10-16T11:28:50;0.67;;;0.60;;
20865;SDS011;10593;48.398;10.698;2022-10-16T11:31:40;0.70;;;0.60;;
20865;SDS011;10593;48.398;10.698;2022-10-16T11:34:32;1.33;;;0.90;;
20865;SDS011;10593;48.398;10.698;2022-10-16T11:37:27;0.77;;;0.77;;
20865;SDS011;10593;48.398;10.698;2022-10-16T11:40:00;0.80;;;0.80;;
20865;SDS011;10593;48.398;10.698;2022-10-16T11:42:46;0.70;;;0.70;;
20865;SDS011;10593;48.398;10.698;2022-10-16T11:48:48;0.70;;;0.70;;
20865;SDS011;10593;48.398;10.698;2022-10-16T11:51:40;0.40;;;0.40;;
20865;SDS011;10593;48.398;10.698;2022-10-16T11:54:21;0.80;;;0.60;;
20865;SDS011;10593;48.398;10.698;2022-10-16T11:57:01;1.17;;;0.90;;
20865;SDS011;10593;48.398;10.698;2022-10-16T11:59:46;0.70;;;0.60;;
20865;SDS011;10593;48.398;10.698;2022-10-16T12:08:20;1.80;;;0.67;;
20865;SDS011;10593;48.398;10.698;2022-10-16T12:10:47;1.83;;;0.73;;
20865;SDS011;10593;48.398;10.698;2022-10-16T12:18:39;0.80;;;0.80;;
20865;SDS011;10593;48.398;10.698;2022-10-16T12:21:07;1.53;;;0.80;;
20865;SDS011;10593;48.398;10.698;2022-10-16T12:23:38;0.70;;;0.70;;
20865;SDS011;10593;48.398;10.698;2022-10-16T12:26:26;0.90;;;0.70;;
20865;SDS011;10593;48.398;10.698;2022-10-16T12:31:48;0.53;;;0.53;;
20865;SDS011;10593;48.398;10.698;2022-10-16T12:37:14;0.80;;;0.63;;
20865;SDS011;10593;48.398;10.698;2022-10-16T12:39:48;0.80;;;0.80;;
20865;SDS011;10593;48.398;10.698;2022-10-16T12:44:53;0.70;;;0.70;;
20865;SDS011;10593;48.398;10.698;2022-10-16T12:47:38;0.70;;;0.70;;
20865;SDS011;10593;48.398;10.698;2022-10-16T12:50:29;0.93;;;0.60;;
20865;SDS011;10593;48.398;10.698;2022-10-16T12:52:59;0.43;;;0.43;;
20865;SDS011;10593;48.398;10.698;2022-10-16T12:55:31;0.73;;;0.50;;
20865;SDS011;10593;48.398;10.698;2022-10-16T12:58:18;2.63;;;0.70;;
20865;SDS011;10593;48.398;10.698;2022-10-16T13:01:23;0.60;;;0.60;;
20865;SDS011;10593;48.398;10.698;2022-10-16T13:04:20;0.50;;;0.50;;
20865;SDS011;10593;48.398;10.698;2022-10-16T13:07:18;0.50;;;0.50;;
20865;SDS011;10593;48.398;10.698;2022-10-16T13:10:06;0.50;;;0.50;;
20865;SDS011;10593;48.398;10.698;2022-10-16T13:22:10;1.27;;;0.57;;
20865;SDS011;10593;48.398;10.698;2022-10-16T13:28:07;0.50;;;0.50;;
20865;SDS011;10593;48.398;10.698;2022-10-16T13:33:12;0.50;;;0.50;;
20865;SDS011;10593;48.398;10.698;2022-10-16T13:35:47;1.47;;;0.40;;
20865;SDS011;10593;48.398;10.698;2022-10-16T13:38:17;1.13;;;0.90;;
20865;SDS011;10593;48.398;10.698;2022-10-16T13:43:37;0.63;;;0.63;;
20865;SDS011;10593;48.398;10.698;2022-10-16T13:46:13;2.27;;;1.00;;
20865;SDS011;10593;48.398;10.698;2022-10-16T13:48:41;2.13;;;0.80;;
20865;SDS011;10593;48.398;10.698;2022-10-16T13:53:42;0.57;;;0.40;;
20865;SDS011;10593;48.398;10.698;2022-10-16T13:56:11;0.53;;;0.53;;
20865;SDS011;10593;48.398;10.698;2022-10-16T13:58:44;1.50;;;0.70;;
20865;SDS011;10593;48.398;10.698;2022-10-16T14:01:16;0.60;;;0.53;;
20865;SDS011;10593;48.398;10.698;2022-10-16T14:03:50;0.43;;;0.43;;
20865;SDS011;10593;48.398;10.698;2022-10-16T14:06:17;0.80;;;0.80;;
20865;SDS011;10593;48.398;10.698;2022-10-16T14:08:50;0.67;;;0.67;;
20865;SDS011;10593;48.398;10.698;2022-10-16T14:11:26;1.47;;;0.50;;
20865;SDS011;10593;48.398;10.698;2022-10-16T14:13:52;0.50;;;0.40;;
20865;SDS011;10593;48.398;10.698;2022-10-16T14:16:20;1.17;;;0.87;;
20865;SDS011;10593;48.398;10.698;2022-10-16T14:19:32;1.57;;;0.80;;
20865;SDS011;10593;48.398;10.698;2022-10-16T14:21:52;0.83;;;0.50;;
20865;SDS011;10593;48.398;10.698;2022-10-16T14:32:55;0.70;;;0.70;;
20865;SDS011;10593;48.398;10.698;2022-10-16T14:35:34;0.57;;;0.53;;
20865;SDS011;10593;48.398;10.698;2022-10-16T14:38:04;0.67;;;0.67;;
20865;SDS011;10593;48.398;10.698;2022-10-16T14:40:45;1.00;;;0.60;;
20865;SDS011;10593;48.398;10.698;2022-10-16T14:43:14;0.57;;;0.30;;
20865;SDS011;10593;48.398;10.698;2022-10-16T14:45:54;1.53;;;0.80;;
20865;SDS011;10593;48.398;10.698;2022-10-16T14:48:22;0.50;;;0.50;;
20865;SDS011;10593;48.398;10.698;2022-10-16T14:50:49;0.70;;;0.70;;
20865;SDS011;10593;48.398;10.698;2022-10-16T14:53:15;0.60;;;0.60;;
20865;SDS011;10593;48.398;10.698;2022-10-16T14:55:41;1.30;;;0.83;;
20865;SDS011;10593;48.398;10.698;2022-10-16T14:58:25;0.60;;;0.60;;
20865;SDS011;10593;48.398;10.698;2022-10-16T15:00:51;1.17;;;0.70;;
20865;SDS011;10593;48.398;10.698;2022-10-16T15:03:17;0.80;;;0.80;;
20865;SDS011;10593;48.398;10.698;2022-10-16T15:05:42;0.77;;;0.70;;
20865;SDS011;10593;48.398;10.698;2022-10-16T15:08:08;2.47;;;0.80;;
20865;SDS011;10593;48.398;10.698;2022-10-16T15:10:36;0.63;;;0.63;;
20865;SDS011;10593;48.398;10.698;2022-10-16T15:13:09;0.77;;;0.60;;
20865;SDS011;10593;48.398;10.698;2022-10-16T15:18:12;2.70;;;0.60;;
20865;SDS011;10593;48.398;10.698;2022-10-16T15:20:40;1.53;;;0.60;;
20865;SDS011;10593;48.398;10.698;2022-10-16T15:23:09;0.57;;;0.57;;
20865;SDS011;10593;48.398;10.698;2022-10-16T15:25:49;1.63;;;0.77;;
20865;SDS011;10593;48.398;10.698;2022-10-16T15:28:18;1.30;;;0.90;;
20865;SDS011;10593;48.398;10.698;2022-10-16T15:30:45;1.30;;;0.50;;
20865;SDS011;10593;48.398;10.698;2022-10-16T15:33:15;1.50;;;0.80;;
20865;SDS011;10593;48.398;10.698;2022-10-16T15:35:48;1.17;;;0.70;;
20865;SDS011;10593;48.398;10.698;2022-10-16T15:38:16;1.60;;;1.00;;
20865;SDS011;10593;48.398;10.698;2022-10-16T15:40:45;1.60;;;0.60;;
20865;SDS011;10593;48.398;10.698;2022-10-16T15:43:11;0.70;;;0.70;;
20865;SDS011;10593;48.398;10.698;2022-10-16T15:45:37;0.50;;;0.50;;
20865;SDS011;10593;48.398;10.698;2022-10-16T15:48:03;1.60;;;0.70;;
20865;SDS011;10593;48.398;10.698;2022-10-16T15:50:30;2.20;;;0.80;;
20865;SDS011;10593;48.398;10.698;2022-10-16T15:52:57;1.40;;;0.70;;
20865;SDS011;10593;48.398;10.698;2022-10-16T15:55:23;0.80;;;0.80;;
20865;SDS011;10593;48.398;10.698;2022-10-16T15:57:49;0.90;;;0.90;;
20865;SDS011;10593;48.398;10.698;2022-10-16T16:00:16;1.40;;;0.80;;
20865;SDS011;10593;48.398;10.698;2022-10-16T16:02:51;5.13;;;1.17;;
20865;SDS011;10593;48.398;10.698;2022-10-16T16:05:18;1.10;;;0.90;;
20865;SDS011;10593;48.398;10.698;2022-10-16T16:07:46;1.30;;;1.20;;
20865;SDS011;10593;48.398;10.698;2022-10-16T16:10:12;3.67;;;1.33;;
20865;SDS011;10593;48.398;10.698;2022-10-16T16:12:38;2.20;;;0.80;;
20865;SDS011;10593;48.398;10.698;2022-10-16T16:15:05;2.70;;;1.27;;
20865;SDS011;10593;48.398;10.698;2022-10-16T16:17:33;4.80;;;1.10;;
20865;SDS011;10593;48.398;10.698;2022-10-16T16:20:00;2.10;;;1.20;;
20865;SDS011;10593;48.398;10.698;2022-10-16T16:22:26;3.33;;;1.10;;
20865;SDS011;10593;48.398;10.698;2022-10-16T16:24:53;3.90;;;1.17;;
20865;SDS011;10593;48.398;10.698;2022-10-16T16:27:19;2.37;;;1.27;;
20865;SDS011;10593;48.398;10.698;2022-10-16T16:29:46;1.73;;;1.10;;
20865;SDS011;10593;48.398;10.698;2022-10-16T16:32:12;1.53;;;0.90;;
20865;SDS011;10593;48.398;10.698;2022-10-16T16:34:38;2.10;;;1.00;;
20865;SDS011;10593;48.398;10.698;2022-10-16T16:37:03;4.43;;;1.33;;
20865;SDS011;10593;48.398;10.698;2022-10-16T16:39:29;5.90;;;2.50;;
20865;SDS011;10593;48.398;10.698;2022-10-16T16:41:55;4.07;;;3.03;;
20865;SDS011;10593;48.398;10.698;2022-10-16T16:44:23;4.80;;;2.70;;
20865;SDS011;10593;48.398;10.698;2022-10-16T16:46:51;3.20;;;1.70;;
20865;SDS011;10593;48.398;10.698;2022-10-16T16:49:16;2.87;;;1.73;;
20865;SDS011;10593;48.398;10.698;2022-10-16T16:51:42;1.97;;;1.30;;
20865;SDS011;10593;48.398;10.698;2022-10-16T16:54:09;2.30;;;1.77;;
20865;SDS011;10593;48.398;10.698;2022-10-16T16:56:37;1.40;;;1.30;;
20865;SDS011;10593;48.398;10.698;2022-10-16T16:59:04;2.57;;;1.30;;